メインページ
METAR-TAF:

METAR-TAF

空港 :

カフルイ空港

カフルイ, ハワイ州, アメリカ合衆国

緯度: 20-53-33N, 経度: 156-26-13W, 海抜: 16m

現時点の気象観測

当レポートは35分前の05:54(UTC)に作成
の風 5kt
気温 27°C
湿度 84%
気圧 1013 hPa
視程: 16.1km
晴天

METAR: PHOG 210554Z 10005KT 10SM CLR 27/24 A2992 RMK AO2 SLP137 T02720239 10344 20272 53023

時間: 20:29 (06:29 UTC)

予報

当レポートは56分前の05:33(UTC)に作成
予報は21日の 06時(UTC)から 22日の 06時(UTC)まで有効
北東の風 8kt
視程: 10km
高度2500ftの雲はほとんどない
高度5000ftの雲は散在している
21日の 0800時(UTC)から
変向風 5kt
視程: 10km
高度5000ftの雲はほとんどない
21日の 2000時(UTC)から
北東の風 17kt、最大23ktの突風を伴う
視程: 10km
高度2500ftの雲はほとんどない
高度5000ftの雲は散在している

TAF: PHOG 210533Z 2106/2206 05008KT P6SM FEW025 SCT050 FM210800 VRB05KT P6SM FEW050 FM212000 05017G23KT P6SM FEW025 SCT050 AMD LTD TO VIS AND WIND 2109/2116

4,000以上の空港の気象観測と天気予報(METAR報とTAF報)

利用可能な観測所は地図上に黄色い丸と赤い丸で示す。

丸の上にカーソルを重ねると観測所名を参照できる。

次にクリックすると気象観測と天気予報を参照できる。

マップの切り替え:黒色「×」印の緑ボタンをクリックして拡大、「-」印の緑ボタンをクリックして縮小、緑色の三角印をクリックして隣りの地図に切り替え


METAR-TAF: